sensor_id;sensor_type;location;lat;lon;timestamp;pressure;altitude;pressure_sealevel;temperature
12007;BMP180;6062;47.294;12.182;2022-07-10T00:01:56;81037.00;;;13.40
12007;BMP180;6062;47.294;12.182;2022-07-10T00:04:22;81031.00;;;13.40
12007;BMP180;6062;47.294;12.182;2022-07-10T00:06:48;81039.00;;;13.30
12007;BMP180;6062;47.294;12.182;2022-07-10T00:09:14;81037.00;;;13.30
12007;BMP180;6062;47.294;12.182;2022-07-10T00:11:41;81032.00;;;13.40
12007;BMP180;6062;47.294;12.182;2022-07-10T00:14:07;81039.00;;;13.40
12007;BMP180;6062;47.294;12.182;2022-07-10T00:16:32;81041.00;;;13.50
12007;BMP180;6062;47.294;12.182;2022-07-10T00:18:58;81042.00;;;13.50
12007;BMP180;6062;47.294;12.182;2022-07-10T00:21:24;81026.00;;;13.50
12007;BMP180;6062;47.294;12.182;2022-07-10T00:23:50;81028.00;;;13.60
12007;BMP180;6062;47.294;12.182;2022-07-10T00:26:15;81025.00;;;13.60
12007;BMP180;6062;47.294;12.182;2022-07-10T00:28:41;81027.00;;;13.70
12007;BMP180;6062;47.294;12.182;2022-07-10T00:31:07;81020.00;;;13.70
12007;BMP180;6062;47.294;12.182;2022-07-10T00:33:37;81017.00;;;13.70
12007;BMP180;6062;47.294;12.182;2022-07-10T00:36:04;81007.00;;;13.70
12007;BMP180;6062;47.294;12.182;2022-07-10T00:38:30;80996.00;;;13.70
12007;BMP180;6062;47.294;12.182;2022-07-10T00:40:57;81009.00;;;13.60
12007;BMP180;6062;47.294;12.182;2022-07-10T00:43:22;80995.00;;;13.70
12007;BMP180;6062;47.294;12.182;2022-07-10T00:45:49;80999.00;;;13.70
12007;BMP180;6062;47.294;12.182;2022-07-10T00:48:15;80992.00;;;13.60
12007;BMP180;6062;47.294;12.182;2022-07-10T00:50:44;80995.00;;;13.60
12007;BMP180;6062;47.294;12.182;2022-07-10T00:53:12;80995.00;;;13.60
12007;BMP180;6062;47.294;12.182;2022-07-10T00:55:39;80990.00;;;13.60
12007;BMP180;6062;47.294;12.182;2022-07-10T00:58:10;80984.00;;;13.60
12007;BMP180;6062;47.294;12.182;2022-07-10T01:00:36;80994.00;;;13.70
12007;BMP180;6062;47.294;12.182;2022-07-10T01:03:03;80994.00;;;13.70
12007;BMP180;6062;47.294;12.182;2022-07-10T01:05:29;80992.00;;;13.70
12007;BMP180;6062;47.294;12.182;2022-07-10T01:07:55;80983.00;;;13.70
12007;BMP180;6062;47.294;12.182;2022-07-10T01:10:21;80970.00;;;13.70
12007;BMP180;6062;47.294;12.182;2022-07-10T01:12:47;80970.00;;;13.70
12007;BMP180;6062;47.294;12.182;2022-07-10T01:15:13;80975.00;;;13.70
12007;BMP180;6062;47.294;12.182;2022-07-10T01:17:39;80982.00;;;13.70
12007;BMP180;6062;47.294;12.182;2022-07-10T01:20:07;80977.00;;;13.70
12007;BMP180;6062;47.294;12.182;2022-07-10T01:22:34;80959.00;;;13.70
12007;BMP180;6062;47.294;12.182;2022-07-10T01:25:00;80952.00;;;13.60
12007;BMP180;6062;47.294;12.182;2022-07-10T01:27:26;80947.00;;;13.50
12007;BMP180;6062;47.294;12.182;2022-07-10T01:29:53;80956.00;;;13.50
12007;BMP180;6062;47.294;12.182;2022-07-10T01:32:19;80949.00;;;13.50
12007;BMP180;6062;47.294;12.182;2022-07-10T01:34:45;80952.00;;;13.40
12007;BMP180;6062;47.294;12.182;2022-07-10T01:37:13;80941.00;;;13.40
12007;BMP180;6062;47.294;12.182;2022-07-10T01:39:39;80936.00;;;13.40
12007;BMP180;6062;47.294;12.182;2022-07-10T01:42:05;80925.00;;;13.40
12007;BMP180;6062;47.294;12.182;2022-07-10T01:44:31;80915.00;;;13.40
12007;BMP180;6062;47.294;12.182;2022-07-10T01:46:56;80919.00;;;13.40
12007;BMP180;6062;47.294;12.182;2022-07-10T01:49:22;80917.00;;;13.40
12007;BMP180;6062;47.294;12.182;2022-07-10T01:51:48;80914.00;;;13.40
12007;BMP180;6062;47.294;12.182;2022-07-10T01:54:13;80912.00;;;13.30
12007;BMP180;6062;47.294;12.182;2022-07-10T01:56:39;80911.00;;;13.30
12007;BMP180;6062;47.294;12.182;2022-07-10T01:59:05;80915.00;;;13.30
12007;BMP180;6062;47.294;12.182;2022-07-10T02:01:31;80912.00;;;13.30
12007;BMP180;6062;47.294;12.182;2022-07-10T02:03:57;80906.00;;;13.30
12007;BMP180;6062;47.294;12.182;2022-07-10T02:06:41;80912.00;;;13.30
12007;BMP180;6062;47.294;12.182;2022-07-10T02:09:07;80899.00;;;13.30
12007;BMP180;6062;47.294;12.182;2022-07-10T02:11:33;80908.00;;;13.20
12007;BMP180;6062;47.294;12.182;2022-07-10T02:13:58;80905.00;;;13.20
12007;BMP180;6062;47.294;12.182;2022-07-10T02:16:24;80914.00;;;13.20
12007;BMP180;6062;47.294;12.182;2022-07-10T02:18:50;80914.00;;;13.20
12007;BMP180;6062;47.294;12.182;2022-07-10T02:21:15;80910.00;;;13.20
12007;BMP180;6062;47.294;12.182;2022-07-10T02:23:41;80920.00;;;13.20
12007;BMP180;6062;47.294;12.182;2022-07-10T02:26:07;80910.00;;;13.10
12007;BMP180;6062;47.294;12.182;2022-07-10T02:28:33;80916.00;;;13.10
12007;BMP180;6062;47.294;12.182;2022-07-10T02:30:59;80919.00;;;13.00
12007;BMP180;6062;47.294;12.182;2022-07-10T02:33:25;80911.00;;;13.00
12007;BMP180;6062;47.294;12.182;2022-07-10T02:35:51;80914.00;;;13.00
12007;BMP180;6062;47.294;12.182;2022-07-10T02:38:17;80913.00;;;13.00
12007;BMP180;6062;47.294;12.182;2022-07-10T02:40:42;80905.00;;;13.00
12007;BMP180;6062;47.294;12.182;2022-07-10T02:43:08;80902.00;;;13.00
12007;BMP180;6062;47.294;12.182;2022-07-10T02:45:34;80898.00;;;13.00
12007;BMP180;6062;47.294;12.182;2022-07-10T02:47:59;80906.00;;;13.10
12007;BMP180;6062;47.294;12.182;2022-07-10T02:50:25;80901.00;;;13.10
12007;BMP180;6062;47.294;12.182;2022-07-10T02:52:51;80906.00;;;13.10
12007;BMP180;6062;47.294;12.182;2022-07-10T02:55:16;80911.00;;;13.10
12007;BMP180;6062;47.294;12.182;2022-07-10T02:57:42;80904.00;;;13.10
12007;BMP180;6062;47.294;12.182;2022-07-10T03:00:09;80903.00;;;13.00
12007;BMP180;6062;47.294;12.182;2022-07-10T03:02:35;80898.00;;;12.90
12007;BMP180;6062;47.294;12.182;2022-07-10T03:05:00;80904.00;;;12.80
12007;BMP180;6062;47.294;12.182;2022-07-10T03:07:26;80898.00;;;12.80
12007;BMP180;6062;47.294;12.182;2022-07-10T03:09:52;80902.00;;;12.80
12007;BMP180;6062;47.294;12.182;2022-07-10T03:12:18;80905.00;;;12.80
12007;BMP180;6062;47.294;12.182;2022-07-10T03:14:43;80899.00;;;12.80
12007;BMP180;6062;47.294;12.182;2022-07-10T03:17:09;80909.00;;;12.80
12007;BMP180;6062;47.294;12.182;2022-07-10T03:19:34;80899.00;;;12.90
12007;BMP180;6062;47.294;12.182;2022-07-10T03:22:00;80897.00;;;12.90
12007;BMP180;6062;47.294;12.182;2022-07-10T03:24:26;80893.00;;;12.90
12007;BMP180;6062;47.294;12.182;2022-07-10T03:26:51;80890.00;;;13.00
12007;BMP180;6062;47.294;12.182;2022-07-10T03:29:17;80877.00;;;13.00
12007;BMP180;6062;47.294;12.182;2022-07-10T03:31:43;80882.00;;;13.00
12007;BMP180;6062;47.294;12.182;2022-07-10T03:34:08;80897.00;;;13.00
12007;BMP180;6062;47.294;12.182;2022-07-10T03:36:35;80895.00;;;13.10
12007;BMP180;6062;47.294;12.182;2022-07-10T03:39:01;80893.00;;;13.00
12007;BMP180;6062;47.294;12.182;2022-07-10T03:41:26;80888.00;;;13.00
12007;BMP180;6062;47.294;12.182;2022-07-10T03:43:52;80888.00;;;13.00
12007;BMP180;6062;47.294;12.182;2022-07-10T03:46:18;80886.00;;;13.00
12007;BMP180;6062;47.294;12.182;2022-07-10T03:48:43;80889.00;;;13.10
12007;BMP180;6062;47.294;12.182;2022-07-10T03:51:09;80880.00;;;13.10
12007;BMP180;6062;47.294;12.182;2022-07-10T03:53:35;80880.00;;;13.10
12007;BMP180;6062;47.294;12.182;2022-07-10T03:56:01;80885.00;;;13.10
12007;BMP180;6062;47.294;12.182;2022-07-10T03:58:27;80883.00;;;13.10
12007;BMP180;6062;47.294;12.182;2022-07-10T04:00:53;80868.00;;;13.10
12007;BMP180;6062;47.294;12.182;2022-07-10T04:03:18;80859.00;;;13.10
12007;BMP180;6062;47.294;12.182;2022-07-10T04:05:44;80858.00;;;13.10
12007;BMP180;6062;47.294;12.182;2022-07-10T04:08:10;80868.00;;;13.10
12007;BMP180;6062;47.294;12.182;2022-07-10T04:10:36;80857.00;;;13.10
12007;BMP180;6062;47.294;12.182;2022-07-10T04:13:02;80859.00;;;13.10
12007;BMP180;6062;47.294;12.182;2022-07-10T04:15:28;80858.00;;;13.10
12007;BMP180;6062;47.294;12.182;2022-07-10T04:17:54;80850.00;;;13.10
12007;BMP180;6062;47.294;12.182;2022-07-10T04:20:20;80860.00;;;13.10
12007;BMP180;6062;47.294;12.182;2022-07-10T04:22:47;80869.00;;;13.10
12007;BMP180;6062;47.294;12.182;2022-07-10T04:25:13;80866.00;;;13.10
12007;BMP180;6062;47.294;12.182;2022-07-10T04:27:39;80880.00;;;13.20
12007;BMP180;6062;47.294;12.182;2022-07-10T04:30:06;80856.00;;;13.20
12007;BMP180;6062;47.294;12.182;2022-07-10T04:32:32;80873.00;;;13.20
12007;BMP180;6062;47.294;12.182;2022-07-10T04:34:58;80882.00;;;13.20
12007;BMP180;6062;47.294;12.182;2022-07-10T04:37:24;80884.00;;;13.20
12007;BMP180;6062;47.294;12.182;2022-07-10T04:39:50;80884.00;;;13.20
12007;BMP180;6062;47.294;12.182;2022-07-10T04:42:15;80886.00;;;13.20
12007;BMP180;6062;47.294;12.182;2022-07-10T04:44:42;80889.00;;;13.20
12007;BMP180;6062;47.294;12.182;2022-07-10T04:47:08;80892.00;;;13.10
12007;BMP180;6062;47.294;12.182;2022-07-10T04:49:34;80893.00;;;13.10
12007;BMP180;6062;47.294;12.182;2022-07-10T04:52:01;80869.00;;;13.10
12007;BMP180;6062;47.294;12.182;2022-07-10T04:54:26;80884.00;;;13.10
12007;BMP180;6062;47.294;12.182;2022-07-10T04:56:52;80873.00;;;13.00
12007;BMP180;6062;47.294;12.182;2022-07-10T04:59:18;80893.00;;;13.00
12007;BMP180;6062;47.294;12.182;2022-07-10T05:01:44;80889.00;;;12.90
12007;BMP180;6062;47.294;12.182;2022-07-10T05:04:10;80885.00;;;12.90
12007;BMP180;6062;47.294;12.182;2022-07-10T05:06:36;80879.00;;;12.90
12007;BMP180;6062;47.294;12.182;2022-07-10T05:09:03;80877.00;;;12.90
12007;BMP180;6062;47.294;12.182;2022-07-10T05:11:29;80883.00;;;12.90
12007;BMP180;6062;47.294;12.182;2022-07-10T05:13:55;80883.00;;;12.90
12007;BMP180;6062;47.294;12.182;2022-07-10T05:16:21;80880.00;;;12.90
12007;BMP180;6062;47.294;12.182;2022-07-10T05:18:47;80865.00;;;12.90
12007;BMP180;6062;47.294;12.182;2022-07-10T05:21:14;80887.00;;;12.90
12007;BMP180;6062;47.294;12.182;2022-07-10T05:23:40;80882.00;;;12.90
12007;BMP180;6062;47.294;12.182;2022-07-10T05:26:06;80888.00;;;12.90
12007;BMP180;6062;47.294;12.182;2022-07-10T05:28:32;80889.00;;;12.90
12007;BMP180;6062;47.294;12.182;2022-07-10T05:30:58;80883.00;;;12.90
12007;BMP180;6062;47.294;12.182;2022-07-10T05:33:24;80881.00;;;12.90
12007;BMP180;6062;47.294;12.182;2022-07-10T05:35:52;80882.00;;;12.90
12007;BMP180;6062;47.294;12.182;2022-07-10T05:38:17;80888.00;;;12.90
12007;BMP180;6062;47.294;12.182;2022-07-10T05:40:43;80887.00;;;13.00
12007;BMP180;6062;47.294;12.182;2022-07-10T05:43:09;80890.00;;;13.00
12007;BMP180;6062;47.294;12.182;2022-07-10T05:45:36;80884.00;;;13.00
12007;BMP180;6062;47.294;12.182;2022-07-10T05:48:02;80881.00;;;13.00
12007;BMP180;6062;47.294;12.182;2022-07-10T05:50:28;80880.00;;;13.00
12007;BMP180;6062;47.294;12.182;2022-07-10T05:52:54;80901.00;;;13.00
12007;BMP180;6062;47.294;12.182;2022-07-10T05:55:19;80886.00;;;13.00
12007;BMP180;6062;47.294;12.182;2022-07-10T05:57:45;80900.00;;;13.00
12007;BMP180;6062;47.294;12.182;2022-07-10T06:00:12;80892.00;;;13.10
12007;BMP180;6062;47.294;12.182;2022-07-10T06:02:38;80895.00;;;13.10
12007;BMP180;6062;47.294;12.182;2022-07-10T06:05:05;80899.00;;;13.10
12007;BMP180;6062;47.294;12.182;2022-07-10T06:07:31;80894.00;;;13.20
12007;BMP180;6062;47.294;12.182;2022-07-10T06:09:57;80897.00;;;13.20
12007;BMP180;6062;47.294;12.182;2022-07-10T06:12:22;80890.00;;;13.20
12007;BMP180;6062;47.294;12.182;2022-07-10T06:14:48;80886.00;;;13.30
12007;BMP180;6062;47.294;12.182;2022-07-10T06:17:14;80897.00;;;13.40
12007;BMP180;6062;47.294;12.182;2022-07-10T06:19:40;80880.00;;;13.50
12007;BMP180;6062;47.294;12.182;2022-07-10T06:22:06;80892.00;;;13.50
12007;BMP180;6062;47.294;12.182;2022-07-10T06:24:50;80896.00;;;13.60
12007;BMP180;6062;47.294;12.182;2022-07-10T06:27:15;80878.00;;;13.60
12007;BMP180;6062;47.294;12.182;2022-07-10T06:29:41;80889.00;;;13.70
12007;BMP180;6062;47.294;12.182;2022-07-10T06:32:07;80884.00;;;13.80
12007;BMP180;6062;47.294;12.182;2022-07-10T06:34:33;80891.00;;;13.80
12007;BMP180;6062;47.294;12.182;2022-07-10T06:36:59;80889.00;;;13.90
12007;BMP180;6062;47.294;12.182;2022-07-10T06:39:25;80884.00;;;14.00
12007;BMP180;6062;47.294;12.182;2022-07-10T06:41:51;80884.00;;;14.00
12007;BMP180;6062;47.294;12.182;2022-07-10T06:44:17;80883.00;;;14.00
12007;BMP180;6062;47.294;12.182;2022-07-10T06:46:42;80879.00;;;14.00
12007;BMP180;6062;47.294;12.182;2022-07-10T06:49:28;80883.00;;;14.00
12007;BMP180;6062;47.294;12.182;2022-07-10T06:51:54;80877.00;;;13.90
12007;BMP180;6062;47.294;12.182;2022-07-10T06:56:55;80874.00;;;13.80
12007;BMP180;6062;47.294;12.182;2022-07-10T06:59:21;80891.00;;;13.80
12007;BMP180;6062;47.294;12.182;2022-07-10T07:01:46;80884.00;;;13.80
12007;BMP180;6062;47.294;12.182;2022-07-10T07:04:12;80889.00;;;13.70
12007;BMP180;6062;47.294;12.182;2022-07-10T07:06:38;80873.00;;;13.70
12007;BMP180;6062;47.294;12.182;2022-07-10T07:09:03;80880.00;;;13.70
12007;BMP180;6062;47.294;12.182;2022-07-10T07:11:29;80872.00;;;13.60
12007;BMP180;6062;47.294;12.182;2022-07-10T07:13:54;80870.00;;;13.60
12007;BMP180;6062;47.294;12.182;2022-07-10T07:16:20;80878.00;;;13.60
12007;BMP180;6062;47.294;12.182;2022-07-10T07:18:52;80887.00;;;13.50
12007;BMP180;6062;47.294;12.182;2022-07-10T07:21:20;80868.00;;;13.50
12007;BMP180;6062;47.294;12.182;2022-07-10T07:24:05;80865.00;;;13.50
12007;BMP180;6062;47.294;12.182;2022-07-10T07:26:31;80875.00;;;13.40
12007;BMP180;6062;47.294;12.182;2022-07-10T07:28:56;80864.00;;;13.30
12007;BMP180;6062;47.294;12.182;2022-07-10T07:31:22;80881.00;;;13.30
12007;BMP180;6062;47.294;12.182;2022-07-10T07:33:48;80878.00;;;13.20
12007;BMP180;6062;47.294;12.182;2022-07-10T07:36:13;80884.00;;;13.10
12007;BMP180;6062;47.294;12.182;2022-07-10T07:38:39;80870.00;;;13.10
12007;BMP180;6062;47.294;12.182;2022-07-10T07:41:05;80879.00;;;13.00
12007;BMP180;6062;47.294;12.182;2022-07-10T07:43:30;80875.00;;;13.00
12007;BMP180;6062;47.294;12.182;2022-07-10T07:45:56;80878.00;;;13.00
12007;BMP180;6062;47.294;12.182;2022-07-10T07:48:22;80897.00;;;12.90
12007;BMP180;6062;47.294;12.182;2022-07-10T07:50:48;80889.00;;;12.90
12007;BMP180;6062;47.294;12.182;2022-07-10T07:53:13;80886.00;;;13.00
12007;BMP180;6062;47.294;12.182;2022-07-10T07:55:39;80890.00;;;13.10
12007;BMP180;6062;47.294;12.182;2022-07-10T07:58:05;80893.00;;;13.20
12007;BMP180;6062;47.294;12.182;2022-07-10T08:00:31;80891.00;;;13.30
12007;BMP180;6062;47.294;12.182;2022-07-10T08:02:58;80895.00;;;13.40
12007;BMP180;6062;47.294;12.182;2022-07-10T08:05:24;80890.00;;;13.50
12007;BMP180;6062;47.294;12.182;2022-07-10T08:07:55;80898.00;;;13.60
12007;BMP180;6062;47.294;12.182;2022-07-10T08:10:24;80864.00;;;13.70
12007;BMP180;6062;47.294;12.182;2022-07-10T08:12:52;80906.00;;;13.80
12007;BMP180;6062;47.294;12.182;2022-07-10T08:15:21;80894.00;;;13.80
12007;BMP180;6062;47.294;12.182;2022-07-10T08:17:53;80897.00;;;13.90
12007;BMP180;6062;47.294;12.182;2022-07-10T08:20:19;80891.00;;;14.00
12007;BMP180;6062;47.294;12.182;2022-07-10T08:22:46;80899.00;;;14.00
12007;BMP180;6062;47.294;12.182;2022-07-10T08:25:14;80893.00;;;14.00
12007;BMP180;6062;47.294;12.182;2022-07-10T08:27:40;80892.00;;;14.00
12007;BMP180;6062;47.294;12.182;2022-07-10T08:30:08;80892.00;;;14.00
12007;BMP180;6062;47.294;12.182;2022-07-10T08:32:36;80903.00;;;14.00
12007;BMP180;6062;47.294;12.182;2022-07-10T08:35:03;80905.00;;;14.00
12007;BMP180;6062;47.294;12.182;2022-07-10T08:37:29;80887.00;;;14.10
12007;BMP180;6062;47.294;12.182;2022-07-10T08:39:54;80886.00;;;14.10
12007;BMP180;6062;47.294;12.182;2022-07-10T08:42:21;80881.00;;;14.20
12007;BMP180;6062;47.294;12.182;2022-07-10T08:44:47;80890.00;;;14.20
12007;BMP180;6062;47.294;12.182;2022-07-10T08:47:13;80888.00;;;14.20
12007;BMP180;6062;47.294;12.182;2022-07-10T08:49:47;80911.00;;;14.10
12007;BMP180;6062;47.294;12.182;2022-07-10T08:52:27;80908.00;;;14.10
12007;BMP180;6062;47.294;12.182;2022-07-10T08:54:56;80892.00;;;14.10
12007;BMP180;6062;47.294;12.182;2022-07-10T08:57:23;80889.00;;;14.20
12007;BMP180;6062;47.294;12.182;2022-07-10T08:59:50;80891.00;;;14.20
12007;BMP180;6062;47.294;12.182;2022-07-10T09:02:16;80891.00;;;14.30
12007;BMP180;6062;47.294;12.182;2022-07-10T09:04:41;80891.00;;;14.40
12007;BMP180;6062;47.294;12.182;2022-07-10T09:07:07;80889.00;;;14.40
12007;BMP180;6062;47.294;12.182;2022-07-10T09:09:56;80886.00;;;14.50
12007;BMP180;6062;47.294;12.182;2022-07-10T09:12:24;80889.00;;;14.50
12007;BMP180;6062;47.294;12.182;2022-07-10T09:14:51;80887.00;;;14.60
12007;BMP180;6062;47.294;12.182;2022-07-10T09:17:18;80883.00;;;14.60
12007;BMP180;6062;47.294;12.182;2022-07-10T09:19:44;80875.00;;;14.50
12007;BMP180;6062;47.294;12.182;2022-07-10T09:22:12;80885.00;;;14.50
12007;BMP180;6062;47.294;12.182;2022-07-10T09:24:44;80883.00;;;14.40
12007;BMP180;6062;47.294;12.182;2022-07-10T09:27:14;80886.00;;;14.30
12007;BMP180;6062;47.294;12.182;2022-07-10T09:29:52;80878.00;;;14.30
12007;BMP180;6062;47.294;12.182;2022-07-10T09:32:21;80885.00;;;14.20
12007;BMP180;6062;47.294;12.182;2022-07-10T09:34:51;80880.00;;;14.10
12007;BMP180;6062;47.294;12.182;2022-07-10T09:37:39;80888.00;;;14.00
12007;BMP180;6062;47.294;12.182;2022-07-10T09:40:08;80894.00;;;14.00
12007;BMP180;6062;47.294;12.182;2022-07-10T09:42:35;80890.00;;;14.00
12007;BMP180;6062;47.294;12.182;2022-07-10T09:47:38;80881.00;;;13.80
12007;BMP180;6062;47.294;12.182;2022-07-10T09:50:19;80884.00;;;13.70
12007;BMP180;6062;47.294;12.182;2022-07-10T09:52:46;80894.00;;;13.60
12007;BMP180;6062;47.294;12.182;2022-07-10T09:55:28;80884.00;;;13.60
12007;BMP180;6062;47.294;12.182;2022-07-10T09:58:14;80894.00;;;13.40
12007;BMP180;6062;47.294;12.182;2022-07-10T10:00:41;80899.00;;;13.40
12007;BMP180;6062;47.294;12.182;2022-07-10T10:03:10;80893.00;;;13.30
12007;BMP180;6062;47.294;12.182;2022-07-10T10:05:53;80886.00;;;13.20
12007;BMP180;6062;47.294;12.182;2022-07-10T10:08:44;80880.00;;;13.20
12007;BMP180;6062;47.294;12.182;2022-07-10T10:11:20;80885.00;;;13.10
12007;BMP180;6062;47.294;12.182;2022-07-10T10:13:48;80885.00;;;13.10
12007;BMP180;6062;47.294;12.182;2022-07-10T10:16:15;80906.00;;;13.10
12007;BMP180;6062;47.294;12.182;2022-07-10T10:18:42;80902.00;;;13.00
12007;BMP180;6062;47.294;12.182;2022-07-10T10:21:28;80904.00;;;13.00
12007;BMP180;6062;47.294;12.182;2022-07-10T10:23:55;80900.00;;;12.90
12007;BMP180;6062;47.294;12.182;2022-07-10T10:26:23;80890.00;;;13.00
12007;BMP180;6062;47.294;12.182;2022-07-10T10:28:57;80904.00;;;13.00
12007;BMP180;6062;47.294;12.182;2022-07-10T10:31:24;80909.00;;;12.90
12007;BMP180;6062;47.294;12.182;2022-07-10T10:33:55;80911.00;;;12.90
12007;BMP180;6062;47.294;12.182;2022-07-10T10:39:22;80925.00;;;12.90
12007;BMP180;6062;47.294;12.182;2022-07-10T10:41:55;80915.00;;;12.90
12007;BMP180;6062;47.294;12.182;2022-07-10T10:44:22;80916.00;;;12.90
12007;BMP180;6062;47.294;12.182;2022-07-10T10:46:59;80913.00;;;13.00
12007;BMP180;6062;47.294;12.182;2022-07-10T10:49:55;80909.00;;;13.00
12007;BMP180;6062;47.294;12.182;2022-07-10T10:52:27;80912.00;;;13.10
12007;BMP180;6062;47.294;12.182;2022-07-10T10:57:23;80890.00;;;13.40
12007;BMP180;6062;47.294;12.182;2022-07-10T10:59:51;80911.00;;;13.50
12007;BMP180;6062;47.294;12.182;2022-07-10T11:02:29;80910.00;;;13.60
12007;BMP180;6062;47.294;12.182;2022-07-10T11:07:59;80912.00;;;14.00
12007;BMP180;6062;47.294;12.182;2022-07-10T11:10:45;80908.00;;;14.20
12007;BMP180;6062;47.294;12.182;2022-07-10T11:13:16;80919.00;;;14.40
12007;BMP180;6062;47.294;12.182;2022-07-10T11:15:48;80927.00;;;14.50
12007;BMP180;6062;47.294;12.182;2022-07-10T11:18:21;80914.00;;;14.60
12007;BMP180;6062;47.294;12.182;2022-07-10T11:20:50;80906.00;;;14.70
12007;BMP180;6062;47.294;12.182;2022-07-10T11:23:59;80915.00;;;14.70
12007;BMP180;6062;47.294;12.182;2022-07-10T11:29:12;80909.00;;;14.80
12007;BMP180;6062;47.294;12.182;2022-07-10T11:31:37;80894.00;;;14.90
12007;BMP180;6062;47.294;12.182;2022-07-10T11:34:10;80907.00;;;15.00
12007;BMP180;6062;47.294;12.182;2022-07-10T11:36:39;80915.00;;;15.00
12007;BMP180;6062;47.294;12.182;2022-07-10T11:39:08;80911.00;;;15.00
12007;BMP180;6062;47.294;12.182;2022-07-10T11:41:42;80920.00;;;15.00
12007;BMP180;6062;47.294;12.182;2022-07-10T11:44:14;80930.00;;;15.00
12007;BMP180;6062;47.294;12.182;2022-07-10T11:46:42;80920.00;;;14.90
12007;BMP180;6062;47.294;12.182;2022-07-10T11:49:10;80916.00;;;14.80
12007;BMP180;6062;47.294;12.182;2022-07-10T11:51:38;80917.00;;;14.70
12007;BMP180;6062;47.294;12.182;2022-07-10T11:54:09;80907.00;;;14.50
12007;BMP180;6062;47.294;12.182;2022-07-10T11:56:40;80910.00;;;14.30
12007;BMP180;6062;47.294;12.182;2022-07-10T11:59:09;80930.00;;;14.20
12007;BMP180;6062;47.294;12.182;2022-07-10T12:01:46;80926.00;;;14.20
12007;BMP180;6062;47.294;12.182;2022-07-10T12:04:15;80926.00;;;14.10
12007;BMP180;6062;47.294;12.182;2022-07-10T12:06:47;80917.00;;;14.20
12007;BMP180;6062;47.294;12.182;2022-07-10T12:09:17;80915.00;;;14.20
12007;BMP180;6062;47.294;12.182;2022-07-10T12:12:04;80898.00;;;14.20
12007;BMP180;6062;47.294;12.182;2022-07-10T12:14:30;80912.00;;;14.30
12007;BMP180;6062;47.294;12.182;2022-07-10T12:16:58;80922.00;;;14.40
12007;BMP180;6062;47.294;12.182;2022-07-10T12:19:29;80917.00;;;14.50
12007;BMP180;6062;47.294;12.182;2022-07-10T12:21:59;80908.00;;;14.60
12007;BMP180;6062;47.294;12.182;2022-07-10T12:24:26;80920.00;;;14.70
12007;BMP180;6062;47.294;12.182;2022-07-10T12:26:53;80919.00;;;14.80
12007;BMP180;6062;47.294;12.182;2022-07-10T12:29:30;80922.00;;;14.90
12007;BMP180;6062;47.294;12.182;2022-07-10T12:31:59;80926.00;;;14.90
12007;BMP180;6062;47.294;12.182;2022-07-10T12:34:35;80934.00;;;14.90
12007;BMP180;6062;47.294;12.182;2022-07-10T12:37:10;80920.00;;;14.80
12007;BMP180;6062;47.294;12.182;2022-07-10T12:39:48;80930.00;;;14.80
12007;BMP180;6062;47.294;12.182;2022-07-10T12:42:28;80940.00;;;14.70
12007;BMP180;6062;47.294;12.182;2022-07-10T12:45:08;80935.00;;;14.60
12007;BMP180;6062;47.294;12.182;2022-07-10T12:47:47;80935.00;;;14.60
12007;BMP180;6062;47.294;12.182;2022-07-10T12:50:14;80931.00;;;14.60
12007;BMP180;6062;47.294;12.182;2022-07-10T12:52:41;80924.00;;;14.60
12007;BMP180;6062;47.294;12.182;2022-07-10T12:55:19;80920.00;;;14.70
12007;BMP180;6062;47.294;12.182;2022-07-10T12:57:56;80926.00;;;14.80
12007;BMP180;6062;47.294;12.182;2022-07-10T13:00:28;80917.00;;;15.00
12007;BMP180;6062;47.294;12.182;2022-07-10T13:03:10;80922.00;;;15.20
12007;BMP180;6062;47.294;12.182;2022-07-10T13:05:40;80932.00;;;15.40
12007;BMP180;6062;47.294;12.182;2022-07-10T13:10:42;80925.00;;;15.80
12007;BMP180;6062;47.294;12.182;2022-07-10T13:13:09;80920.00;;;15.90
12007;BMP180;6062;47.294;12.182;2022-07-10T13:15:36;80936.00;;;16.00
12007;BMP180;6062;47.294;12.182;2022-07-10T13:18:23;80931.00;;;16.00
12007;BMP180;6062;47.294;12.182;2022-07-10T13:20:53;80942.00;;;16.00
12007;BMP180;6062;47.294;12.182;2022-07-10T13:23:19;80935.00;;;16.00
12007;BMP180;6062;47.294;12.182;2022-07-10T13:25:49;80930.00;;;16.00
12007;BMP180;6062;47.294;12.182;2022-07-10T13:28:15;80932.00;;;15.80
12007;BMP180;6062;47.294;12.182;2022-07-10T13:30:45;80934.00;;;15.70
12007;BMP180;6062;47.294;12.182;2022-07-10T13:33:11;80941.00;;;15.60
12007;BMP180;6062;47.294;12.182;2022-07-10T13:35:37;80938.00;;;15.50
12007;BMP180;6062;47.294;12.182;2022-07-10T13:38:04;80943.00;;;15.40
12007;BMP180;6062;47.294;12.182;2022-07-10T13:40:32;80942.00;;;15.30
12007;BMP180;6062;47.294;12.182;2022-07-10T13:42:58;80944.00;;;15.10
12007;BMP180;6062;47.294;12.182;2022-07-10T13:45:25;80948.00;;;15.00
12007;BMP180;6062;47.294;12.182;2022-07-10T13:47:56;80944.00;;;14.80
12007;BMP180;6062;47.294;12.182;2022-07-10T13:50:22;80937.00;;;14.80
12007;BMP180;6062;47.294;12.182;2022-07-10T13:52:49;80955.00;;;14.70
12007;BMP180;6062;47.294;12.182;2022-07-10T13:55:15;80946.00;;;14.60
12007;BMP180;6062;47.294;12.182;2022-07-10T13:57:41;80947.00;;;14.50
12007;BMP180;6062;47.294;12.182;2022-07-10T14:00:08;80947.00;;;14.50
12007;BMP180;6062;47.294;12.182;2022-07-10T14:02:34;80939.00;;;14.40
12007;BMP180;6062;47.294;12.182;2022-07-10T14:05:00;80950.00;;;14.30
12007;BMP180;6062;47.294;12.182;2022-07-10T14:07:26;80943.00;;;14.20
12007;BMP180;6062;47.294;12.182;2022-07-10T14:09:51;80937.00;;;14.10
12007;BMP180;6062;47.294;12.182;2022-07-10T14:12:17;80944.00;;;14.00
12007;BMP180;6062;47.294;12.182;2022-07-10T14:14:43;80948.00;;;13.90
12007;BMP180;6062;47.294;12.182;2022-07-10T14:17:09;80949.00;;;13.80
12007;BMP180;6062;47.294;12.182;2022-07-10T14:19:35;80945.00;;;13.80
12007;BMP180;6062;47.294;12.182;2022-07-10T14:22:01;80940.00;;;13.80
12007;BMP180;6062;47.294;12.182;2022-07-10T14:24:27;80949.00;;;13.70
12007;BMP180;6062;47.294;12.182;2022-07-10T14:26:53;80944.00;;;13.70
12007;BMP180;6062;47.294;12.182;2022-07-10T14:29:19;80958.00;;;13.70
12007;BMP180;6062;47.294;12.182;2022-07-10T14:31:45;80950.00;;;13.60
12007;BMP180;6062;47.294;12.182;2022-07-10T14:34:20;80948.00;;;13.60